Aeroporto :
LOGIN :

Iscrizione | Disclaimer

   EN    FR    IT 

 










Sommario :    VFR   VFR Marginale   IFR   IFR Intensivo   IFR Molto Intensivo
Visibilità : 
Base nubi : 
>= 8 km
>= 3000ft
5 / 8 km
1000 / 3000 ft
1500m / 5 km
500 / 1000 ft
800 / 1500m
200 / 500 ft
< 800m
< 200 ft
Simboli :   Temporali  Nebbia  Neve Forte  Precipitazioni Forti  Vento > 20 kt
SIGMETs :   Varie  Temporali  Ghiacco  Turbolenza  Onda orograficha  Ceneri Vulcaniche







- Altitudine del aeroporto : 459 ft
- Codice IATA : CER
- Carte del aeroporto


LFRC - Cherbourg / Maupertus

ULTIMO METAR :
  • 201700Z AUTO VRB02KT 5000 // BKN013 OVC024 02/01 Q1003

METARs OBSOLETI :
  • 201630Z AUTO 22005KT 5000 // BKN028 OVC035 02/00 Q1002
  • 201600Z AUTO 22005KT 4400 // SCT015 BKN021 BKN028 02/00 Q1002
  • 201530Z AUTO 23005KT 4200 // SCT017 BKN026 OVC036 02/01 Q1002
  • 201500Z AUTO 20003KT 3100 // OVC015 02/00 Q1002
  • 201430Z AUTO 19005KT 3900 // OVC007 02/00 Q1002

TAF TAF LFRC
Valido dal 20 a 15 ore il 21 a 00 ore UTC


201400Z 2015/2024 VRB03KT 9999 BKN015
TEMPO 2015/2021 3000 SHRAGS BKN008 BKN015TCU
BECMG 2021/2024 18010KT
Nessun NOTAM noto per questo aeroporto.



MetMap, La meteo Aeronautica in un colpo d'occhio ! - Copyright ORBIFLY Dicembre 2007 - Disclaimer

ORBIFLY MET'MAP TEAM :

Programmazione e sviluppo : Alexandra Zaïnal
Concezione e sviluppo : Baudouin d'Aumeries
Co-Programmazione e sviluppo : Marc-Olivier Méhu
Supporto tecnico e logistico : Manuel Goepfert
Aiuto per la traduzione : Arnaldo La Scala

Contatto : metmap@orbifly.com




FONTI E CREDITI :

   NOAA